Time;durP1;ratioP1;P1;durP2;ratioP2;P2;SDS_P1;SDS_P2;PMS_P1;PMS_P2;Temp;Humidity;BMP_temperature;BMP_pressure;BME280_temperature;BME280_humidity;BME280_pressure;Samples;Min_cycle;Max_cycle;Signal;HPM_P1;HPM_P2
2024/04/22 00:01:17;;;;;;;;;;;18.10;66.90;;;;;;5393009;26;1843;-72
2024/04/22 00:03:43;;;;;;;;;;;18.10;66.90;;;;;;5398350;26;1881;-70
2024/04/22 00:06:08;;;;;;;;;;;18.10;66.90;;;;;;5401242;26;2207;-72
2024/04/22 00:08:34;;;;;;;;;;;18.10;66.90;;;;;;5393020;26;1798;-72
2024/04/22 00:11:00;;;;;;;;;;;18.10;66.90;;;;;;5364399;26;1908;-71
2024/04/22 00:13:26;;;;;;;;;;;18.10;66.90;;;;;;5397230;26;1820;-72
2024/04/22 00:15:51;;;;;;;;;;;18.10;66.90;;;;;;5368681;26;1293;-72
2024/04/22 00:18:17;;;;;;;;;;;18.10;66.90;;;;;;5397761;26;1896;-72
2024/04/22 00:20:42;;;;;;;;;;;18.10;66.90;;;;;;5365404;26;2006;-73
2024/04/22 00:23:08;;;;;;;;;;;18.10;67.00;;;;;;5420414;26;1878;-72
2024/04/22 00:25:33;;;;;;;;;;;18.10;67.00;;;;;;5395770;26;1864;-72
2024/04/22 00:27:59;;;;;;;;;;;18.10;67.00;;;;;;5392663;26;1987;-72
2024/04/22 00:30:24;;;;;;;;;;;18.10;67.00;;;;;;5393894;26;1637;-72
2024/04/22 00:32:49;;;;;;;;;;;18.10;67.00;;;;;;5397595;26;1137;-70
2024/04/22 00:35:16;;;;;;;;;;;18.10;67.00;;;;;;5364511;26;1453;-70
2024/04/22 00:37:41;;;;;;;;;;;18.10;67.00;;;;;;5391775;26;1314;-70
2024/04/22 00:40:07;;;;;;;;;;;18.10;67.00;;;;;;5419222;26;1984;-69
2024/04/22 00:42:32;;;;;;;;;;;18.10;67.00;;;;;;5361014;26;1932;-72
2024/04/22 00:44:58;;;;;;;;;;;18.10;67.00;;;;;;5363708;26;1912;-72
2024/04/22 00:47:23;;;;;;;;;;;18.10;67.00;;;;;;5397018;26;1981;-73
2024/04/22 00:49:49;;;;;;;;;;;18.10;67.00;;;;;;5389291;26;1918;-73
2024/04/22 00:52:14;;;;;;;;;;;18.10;67.00;;;;;;5395808;26;1957;-70
2024/04/22 00:54:40;;;;;;;;;;;18.10;67.10;;;;;;5352321;26;1881;-71
2024/04/22 00:57:05;;;;;;;;;;;18.10;67.00;;;;;;5341729;26;1856;-71
2024/04/22 00:59:31;;;;;;;;;;;18.10;67.10;;;;;;5391506;26;1752;-72
2024/04/22 01:01:56;;;;;;;;;;;18.10;67.10;;;;;;5393651;26;1933;-69
2024/04/22 01:04:22;;;;;;;;;;;18.10;67.10;;;;;;5362556;26;1421;-70
2024/04/22 01:06:47;;;;;;;;;;;18.10;67.10;;;;;;5395567;26;2023;-71
2024/04/22 01:09:13;;;;;;;;;;;18.10;67.10;;;;;;5386726;26;1527;-73
2024/04/22 01:11:39;;;;;;;;;;;18.10;67.10;;;;;;5395589;26;1347;-72
2024/04/22 01:14:04;;;;;;;;;;;18.10;67.10;;;;;;5362233;26;1144;-71
2024/04/22 01:16:30;;;;;;;;;;;18.10;67.10;;;;;;5422711;26;1379;-72
2024/04/22 01:18:55;;;;;;;;;;;18.10;67.10;;;;;;5339306;26;1893;-71
2024/04/22 01:21:24;;;;;;;;;;;18.10;67.10;;;;;;5396245;26;1430;-71
2024/04/22 01:23:49;;;;;;;;;;;18.10;67.10;;;;;;5417853;26;1784;-72
2024/04/22 01:26:15;;;;;;;;;;;18.10;67.20;;;;;;5365652;26;1862;-72
2024/04/22 01:28:40;;;;;;;;;;;18.10;67.10;;;;;;5392858;26;1904;-70
2024/04/22 01:31:06;;;;;;;;;;;18.10;67.20;;;;;;5395613;26;1767;-70
2024/04/22 01:33:31;;;;;;;;;;;18.10;67.20;;;;;;5393265;26;1886;-71
2024/04/22 01:35:56;;;;;;;;;;;18.10;67.10;;;;;;5386275;26;1769;-72
2024/04/22 01:38:22;;;;;;;;;;;18.10;67.20;;;;;;5391020;26;1850;-71
2024/04/22 01:40:47;;;;;;;;;;;18.10;67.20;;;;;;5368929;26;1775;-71
2024/04/22 01:43:13;;;;;;;;;;;18.10;67.20;;;;;;5391324;26;1901;-71
2024/04/22 01:45:38;;;;;;;;;;;18.10;67.20;;;;;;5391379;26;1825;-70
2024/04/22 01:48:04;;;;;;;;;;;18.10;67.20;;;;;;5394246;26;1407;-72
2024/04/22 01:50:29;;;;;;;;;;;18.10;67.20;;;;;;5393955;26;1781;-73
2024/04/22 01:52:56;;;;;;;;;;;18.10;67.20;;;;;;5391725;26;1786;-73
2024/04/22 01:55:23;;;;;;;;;;;18.10;67.20;;;;;;5422289;26;1679;-73
2024/04/22 01:57:48;;;;;;;;;;;18.10;67.20;;;;;;5418735;26;1706;-73
2024/04/22 02:00:14;;;;;;;;;;;18.10;67.20;;;;;;5360750;26;1834;-72
2024/04/22 02:02:39;;;;;;;;;;;18.10;67.20;;;;;;5367717;26;1483;-72
2024/04/22 02:05:05;;;;;;;;;;;18.10;67.20;;;;;;5393376;26;1874;-72
2024/04/22 02:07:30;;;;;;;;;;;18.10;67.30;;;;;;5361831;26;1908;-71
2024/04/22 02:09:56;;;;;;;;;;;18.10;67.20;;;;;;5362364;26;1588;-71
2024/04/22 02:12:21;;;;;;;;;;;18.10;67.20;;;;;;5390858;26;1743;-72
2024/04/22 02:14:47;;;;;;;;;;;18.10;67.30;;;;;;5390260;26;1963;-72
2024/04/22 02:17:12;;;;;;;;;;;18.10;67.20;;;;;;5392073;26;1865;-72
2024/04/22 02:19:38;;;;;;;;;;;18.10;67.20;;;;;;5390108;26;2284;-69
2024/04/22 02:22:04;;;;;;;;;;;18.10;67.30;;;;;;5363978;26;1874;-68
2024/04/22 02:24:29;;;;;;;;;;;18.10;67.30;;;;;;5392056;26;1750;-68
2024/04/22 02:26:54;;;;;;;;;;;18.10;67.30;;;;;;5391193;26;1821;-70
2024/04/22 02:29:20;;;;;;;;;;;18.00;67.20;;;;;;5380037;26;2034;-73
2024/04/22 02:31:45;;;;;;;;;;;18.10;67.30;;;;;;5394780;26;1782;-71
2024/04/22 02:34:11;;;;;;;;;;;18.10;67.30;;;;;;5389652;26;1843;-70
2024/04/22 02:36:36;;;;;;;;;;;18.10;67.30;;;;;;5392521;26;1456;-70
2024/04/22 02:39:02;;;;;;;;;;;18.10;67.30;;;;;;5398070;26;1607;-70
2024/04/22 02:41:27;;;;;;;;;;;18.10;67.30;;;;;;5400930;26;1876;-70
2024/04/22 02:43:53;;;;;;;;;;;18.10;67.30;;;;;;5397555;26;1474;-71
2024/04/22 02:46:18;;;;;;;;;;;18.10;67.30;;;;;;5389542;26;1978;-72
2024/04/22 02:48:44;;;;;;;;;;;18.10;67.30;;;;;;5391002;26;2011;-72
2024/04/22 02:51:09;;;;;;;;;;;18.10;67.30;;;;;;5394797;26;1828;-72
2024/04/22 02:53:34;;;;;;;;;;;18.10;67.30;;;;;;5392716;26;1925;-71
2024/04/22 02:56:00;;;;;;;;;;;18.10;67.30;;;;;;5391539;26;1931;-72
2024/04/22 02:58:25;;;;;;;;;;;18.10;67.30;;;;;;5367430;26;1869;-73
2024/04/22 03:00:54;;;;;;;;;;;18.10;67.30;;;;;;5394017;26;2050;-72
2024/04/22 03:03:20;;;;;;;;;;;18.10;67.30;;;;;;5398033;26;1888;-73
2024/04/22 03:05:45;;;;;;;;;;;18.10;67.30;;;;;;5416780;26;1922;-72
2024/04/22 03:08:10;;;;;;;;;;;18.00;67.30;;;;;;5392515;26;1959;-73
2024/04/22 03:10:36;;;;;;;;;;;18.00;67.30;;;;;;5394002;26;1657;-73
2024/04/22 03:13:08;;;;;;;;;;;18.10;67.30;;;;;;5364955;26;1817;-73
2024/04/22 03:15:34;;;;;;;;;;;18.00;67.30;;;;;;5396802;26;1650;-73
2024/04/22 03:17:59;;;;;;;;;;;18.10;67.30;;;;;;5422398;26;1946;-72
2024/04/22 03:20:25;;;;;;;;;;;18.00;67.30;;;;;;5393314;26;1646;-72
2024/04/22 03:22:50;;;;;;;;;;;18.00;67.30;;;;;;5393968;26;1881;-72
2024/04/22 03:25:16;;;;;;;;;;;18.00;67.30;;;;;;5396572;26;1875;-73
2024/04/22 03:27:41;;;;;;;;;;;18.10;67.30;;;;;;5392513;26;1946;-73
2024/04/22 03:30:08;;;;;;;;;;;18.00;67.30;;;;;;5364166;26;1958;-72
2024/04/22 03:32:33;;;;;;;;;;;18.00;67.30;;;;;;5399170;26;2002;-72
2024/04/22 03:34:59;;;;;;;;;;;18.00;67.30;;;;;;5393113;26;2146;-72
2024/04/22 03:37:24;;;;;;;;;;;18.00;67.30;;;;;;5395773;26;1944;-73
2024/04/22 03:39:50;;;;;;;;;;;18.00;67.30;;;;;;5399355;26;1944;-74
2024/04/22 03:42:15;;;;;;;;;;;18.10;67.30;;;;;;5394961;26;1173;-72
2024/04/22 03:44:41;;;;;;;;;;;18.00;67.30;;;;;;5400053;26;1804;-72
2024/04/22 03:49:51;;;;;;;;;;;18.00;67.30;;;;;;5398539;26;1915;-72
2024/04/22 03:52:17;;;;;;;;;;;18.00;67.30;;;;;;5395806;26;1614;-73
2024/04/22 03:54:42;;;;;;;;;;;18.10;67.30;;;;;;5341882;26;1837;-72
2024/04/22 03:57:07;;;;;;;;;;;18.00;67.30;;;;;;5394917;26;1951;-73
2024/04/22 03:59:33;;;;;;;;;;;18.00;67.30;;;;;;5392474;26;1867;-73
2024/04/22 04:01:58;;;;;;;;;;;18.00;67.30;;;;;;5394561;26;1888;-73
2024/04/22 04:04:24;;;;;;;;;;;18.00;67.30;;;;;;5365434;26;1652;-72
2024/04/22 04:06:49;;;;;;;;;;;18.00;67.30;;;;;;5395415;26;1856;-72
2024/04/22 04:09:15;;;;;;;;;;;18.10;67.40;;;;;;5392714;26;1933;-72
2024/04/22 04:11:40;;;;;;;;;;;18.00;67.30;;;;;;5392916;26;1938;-72
2024/04/22 04:14:07;;;;;;;;;;;18.10;67.30;;;;;;5400540;26;1794;-71
2024/04/22 04:16:32;;;;;;;;;;;18.10;67.20;;;;;;5368167;26;1986;-71
2024/04/22 04:18:57;;;;;;;;;;;18.10;67.10;;;;;;5365971;26;1961;-73
2024/04/22 04:21:23;;;;;;;;;;;18.10;67.00;;;;;;5396265;26;1701;-73
2024/04/22 04:23:48;;;;;;;;;;;18.10;66.90;;;;;;5364295;26;1910;-72
2024/04/22 04:26:14;;;;;;;;;;;18.20;66.90;;;;;;5369238;26;1825;-73
2024/04/22 04:28:39;;;;;;;;;;;18.20;66.80;;;;;;5394971;26;1864;-72
2024/04/22 04:31:05;;;;;;;;;;;18.20;66.70;;;;;;5399475;26;1927;-72
2024/04/22 04:33:30;;;;;;;;;;;18.30;66.60;;;;;;5395232;26;2537;-73
2024/04/22 04:35:57;;;;;;;;;;;18.30;66.50;;;;;;5347413;26;2430;-73
2024/04/22 04:38:22;;;;;;;;;;;18.30;66.40;;;;;;5425658;26;2413;-73
2024/04/22 04:40:47;;;;;;;;;;;18.40;66.40;;;;;;5367143;26;1910;-72
2024/04/22 04:43:13;;;;;;;;;;;18.40;66.30;;;;;;5394580;26;1591;-73
2024/04/22 04:45:38;;;;;;;;;;;18.40;66.20;;;;;;5363214;26;3003;-74
2024/04/22 04:48:04;;;;;;;;;;;18.40;66.10;;;;;;5388573;26;1284;-72
2024/04/22 04:50:29;;;;;;;;;;;18.40;66.00;;;;;;5392514;26;1523;-72
2024/04/22 04:52:55;;;;;;;;;;;18.40;66.00;;;;;;5397328;26;2017;-71
2024/04/22 04:55:20;;;;;;;;;;;18.40;65.90;;;;;;5391076;26;1495;-71
2024/04/22 04:57:46;;;;;;;;;;;18.40;65.90;;;;;;5400514;26;1519;-72
2024/04/22 05:00:11;;;;;;;;;;;18.40;65.80;;;;;;5400429;26;1529;-72
2024/04/22 05:02:37;;;;;;;;;;;18.50;65.80;;;;;;5428406;26;1708;-72
2024/04/22 05:05:02;;;;;;;;;;;18.50;65.80;;;;;;5372133;26;1486;-72
2024/04/22 05:07:28;;;;;;;;;;;18.50;65.70;;;;;;5365692;26;1830;-72
2024/04/22 05:09:53;;;;;;;;;;;18.50;65.70;;;;;;5420011;26;1836;-75
2024/04/22 05:12:19;;;;;;;;;;;18.50;65.70;;;;;;5417899;26;1901;-70
2024/04/22 05:14:44;;;;;;;;;;;18.50;65.70;;;;;;5365624;26;1914;-71
2024/04/22 05:17:10;;;;;;;;;;;18.50;65.70;;;;;;5396764;26;1886;-71
2024/04/22 05:19:35;;;;;;;;;;;18.50;65.60;;;;;;5369194;26;1766;-71
2024/04/22 05:22:00;;;;;;;;;;;18.50;65.60;;;;;;5393497;26;1164;-71
2024/04/22 05:24:26;;;;;;;;;;;18.50;65.60;;;;;;5396546;26;2001;-71
2024/04/22 05:26:51;;;;;;;;;;;18.50;65.60;;;;;;5365549;26;1871;-71
2024/04/22 05:29:18;;;;;;;;;;;18.50;65.60;;;;;;5392581;26;1970;-71
2024/04/22 05:31:43;;;;;;;;;;;18.50;65.60;;;;;;5364444;26;1798;-72
2024/04/22 05:36:53;;;;;;;;;;;18.50;65.60;;;;;;5399219;26;1496;-70
2024/04/22 05:39:18;;;;;;;;;;;18.50;65.70;;;;;;5430119;26;1440;-70
2024/04/22 05:41:44;;;;;;;;;;;18.50;65.70;;;;;;5394958;26;1803;-71
2024/04/22 05:44:09;;;;;;;;;;;18.50;65.70;;;;;;5399272;26;1542;-71
2024/04/22 05:46:34;;;;;;;;;;;18.50;65.70;;;;;;5370351;26;1869;-71
2024/04/22 05:49:00;;;;;;;;;;;18.50;65.70;;;;;;5399710;26;1971;-71
2024/04/22 05:51:25;;;;;;;;;;;18.50;65.80;;;;;;5400034;26;1421;-72
2024/04/22 05:53:51;;;;;;;;;;;18.50;65.80;;;;;;5395561;26;1621;-70
2024/04/22 05:56:16;;;;;;;;;;;18.50;65.50;;;;;;5417963;26;1892;-71
2024/04/22 05:58:42;;;;;;;;;;;18.50;63.40;;;;;;5396579;26;1857;-72
2024/04/22 06:01:08;;;;;;;;;;;18.50;61.30;;;;;;5367765;26;1928;-71
2024/04/22 06:03:34;;;;;;;;;;;18.40;61.00;;;;;;5363584;26;1848;-73
2024/04/22 06:05:59;;;;;;;;;;;18.40;61.00;;;;;;5393736;26;1880;-73
2024/04/22 06:08:25;;;;;;;;;;;18.40;61.00;;;;;;5394925;26;1973;-73
2024/04/22 06:10:51;;;;;;;;;;;18.40;61.50;;;;;;5388202;26;1739;-72
2024/04/22 06:13:17;;;;;;;;;;;18.40;61.60;;;;;;5393279;26;1275;-72
2024/04/22 06:15:42;;;;;;;;;;;18.40;62.00;;;;;;5390176;26;1550;-72
2024/04/22 06:18:08;;;;;;;;;;;18.40;62.10;;;;;;5391235;26;1766;-72
2024/04/22 06:20:33;;;;;;;;;;;18.40;62.40;;;;;;5423525;26;1946;-71
2024/04/22 06:22:59;;;;;;;;;;;18.40;62.60;;;;;;5377411;26;1904;-73
2024/04/22 06:25:24;;;;;;;;;;;18.40;62.90;;;;;;5388026;26;1873;-73
2024/04/22 06:27:50;;;;;;;;;;;18.40;63.10;;;;;;5393479;26;1745;-72
2024/04/22 06:30:16;;;;;;;;;;;18.40;63.40;;;;;;5377621;26;1907;-70
2024/04/22 06:32:41;;;;;;;;;;;18.40;63.60;;;;;;5364072;26;1867;-72
2024/04/22 06:35:06;;;;;;;;;;;18.40;63.70;;;;;;5392665;26;1504;-73
2024/04/22 06:37:32;;;;;;;;;;;18.30;63.80;;;;;;5391122;26;1651;-73
2024/04/22 06:39:57;;;;;;;;;;;18.30;63.90;;;;;;5368822;26;1470;-73
2024/04/22 06:42:23;;;;;;;;;;;18.30;64.10;;;;;;5390218;26;2024;-74
2024/04/22 06:44:48;;;;;;;;;;;18.30;64.20;;;;;;5361975;26;1811;-73
2024/04/22 06:47:14;;;;;;;;;;;18.30;64.30;;;;;;5378997;26;1821;-73
2024/04/22 06:49:40;;;;;;;;;;;18.30;64.40;;;;;;5393982;26;1655;-73
2024/04/22 06:52:05;;;;;;;;;;;18.30;64.40;;;;;;5416851;26;1513;-72
2024/04/22 06:54:31;;;;;;;;;;;18.30;64.50;;;;;;5416433;26;1797;-73
2024/04/22 06:56:56;;;;;;;;;;;18.30;64.60;;;;;;5392356;26;1501;-71
2024/04/22 06:59:22;;;;;;;;;;;18.30;64.70;;;;;;5391835;26;1555;-73
2024/04/22 07:01:47;;;;;;;;;;;18.30;64.80;;;;;;5393736;26;1865;-73
2024/04/22 07:04:13;;;;;;;;;;;18.30;64.80;;;;;;5422214;26;1872;-72
2024/04/22 07:06:38;;;;;;;;;;;18.20;64.80;;;;;;5391397;26;1864;-73
2024/04/22 07:09:09;;;;;;;;;;;18.30;64.90;;;;;;5391853;26;1356;-73
2024/04/22 07:11:38;;;;;;;;;;;18.30;65.00;;;;;;5417986;26;1867;-71
2024/04/22 07:14:03;;;;;;;;;;;18.20;65.00;;;;;;5360235;26;1764;-73
2024/04/22 07:16:29;;;;;;;;;;;18.20;65.10;;;;;;5422050;26;1995;-72
2024/04/22 07:18:55;;;;;;;;;;;18.20;65.10;;;;;;5419603;26;1824;-72
2024/04/22 07:21:21;;;;;;;;;;;18.20;65.20;;;;;;5360967;26;1682;-72
2024/04/22 07:23:46;;;;;;;;;;;18.20;65.20;;;;;;5391402;26;1645;-73
2024/04/22 07:26:12;;;;;;;;;;;18.20;65.20;;;;;;5390435;26;1907;-72
2024/04/22 07:28:37;;;;;;;;;;;18.20;65.30;;;;;;5360246;26;1445;-72
2024/04/22 07:31:03;;;;;;;;;;;18.20;65.40;;;;;;5359307;26;2031;-73
2024/04/22 07:33:28;;;;;;;;;;;18.20;65.40;;;;;;5420038;26;1783;-72
2024/04/22 07:35:55;;;;;;;;;;;18.20;65.50;;;;;;5389425;26;2026;-71
2024/04/22 07:38:23;;;;;;;;;;;18.20;65.50;;;;;;5369336;26;1863;-71
2024/04/22 07:40:48;;;;;;;;;;;18.20;65.50;;;;;;5424744;26;1808;-72
2024/04/22 07:43:14;;;;;;;;;;;18.20;65.60;;;;;;5394278;26;1884;-72
2024/04/22 07:45:39;;;;;;;;;;;18.20;65.60;;;;;;5365355;26;1905;-71
2024/04/22 07:48:06;;;;;;;;;;;18.20;65.60;;;;;;5391463;26;1888;-71
2024/04/22 07:50:32;;;;;;;;;;;18.20;65.70;;;;;;5394213;26;1793;-72
2024/04/22 07:52:57;;;;;;;;;;;18.20;65.70;;;;;;5399326;26;1755;-72
2024/04/22 07:55:23;;;;;;;;;;;18.20;65.80;;;;;;5424108;26;1932;-72
2024/04/22 07:57:49;;;;;;;;;;;18.20;65.80;;;;;;5394942;26;1877;-72
2024/04/22 08:00:15;;;;;;;;;;;18.20;65.80;;;;;;5398185;26;1498;-72
2024/04/22 08:02:41;;;;;;;;;;;18.20;65.80;;;;;;5380918;26;1896;-71
2024/04/22 08:05:07;;;;;;;;;;;18.20;65.80;;;;;;5378857;26;2100;-71
2024/04/22 08:07:33;;;;;;;;;;;18.20;65.90;;;;;;5396298;26;1884;-72
2024/04/22 08:09:59;;;;;;;;;;;18.10;65.80;;;;;;5371014;26;1907;-72
2024/04/22 08:12:24;;;;;;;;;;;18.10;65.90;;;;;;5366254;26;2020;-73
2024/04/22 08:14:50;;;;;;;;;;;18.10;65.90;;;;;;5398819;26;1525;-71
2024/04/22 08:17:15;;;;;;;;;;;18.10;65.90;;;;;;5401492;26;1665;-72
2024/04/22 08:19:41;;;;;;;;;;;18.10;65.90;;;;;;5406515;26;1734;-72
2024/04/22 08:22:07;;;;;;;;;;;18.10;66.00;;;;;;5406650;26;1771;-72
2024/04/22 08:24:32;;;;;;;;;;;18.10;66.00;;;;;;5403405;26;1435;-72
2024/04/22 08:26:59;;;;;;;;;;;18.10;66.00;;;;;;5396448;26;1830;-72
2024/04/22 08:29:24;;;;;;;;;;;18.10;66.00;;;;;;5391507;26;1440;-72
2024/04/22 08:31:50;;;;;;;;;;;18.10;66.00;;;;;;5397306;26;1275;-72
2024/04/22 08:34:15;;;;;;;;;;;18.10;66.00;;;;;;5370758;26;894;-72
2024/04/22 08:36:41;;;;;;;;;;;18.10;66.10;;;;;;5400470;26;1231;-72
2024/04/22 08:39:06;;;;;;;;;;;18.10;66.10;;;;;;5366397;26;1896;-72
2024/04/22 08:41:35;;;;;;;;;;;18.10;66.10;;;;;;5427804;26;896;-72
2024/04/22 08:44:01;;;;;;;;;;;18.10;66.10;;;;;;5369410;26;1909;-72
2024/04/22 08:46:26;;;;;;;;;;;18.10;66.00;;;;;;5418482;26;1829;-72
2024/04/22 08:48:52;;;;;;;;;;;18.10;66.00;;;;;;5421953;26;1472;-72
2024/04/22 08:51:17;;;;;;;;;;;18.20;66.10;;;;;;5426840;26;961;-72
2024/04/22 08:53:43;;;;;;;;;;;18.10;66.00;;;;;;5336139;26;867;-72
2024/04/22 08:56:08;;;;;;;;;;;18.20;66.00;;;;;;5371021;26;1200;-72
2024/04/22 08:58:35;;;;;;;;;;;18.20;66.00;;;;;;5399048;26;958;-72
2024/04/22 09:01:03;;;;;;;;;;;18.20;66.00;;;;;;5405690;26;932;-71
2024/04/22 09:03:29;;;;;;;;;;;18.20;66.00;;;;;;5380732;26;1072;-72
2024/04/22 09:05:54;;;;;;;;;;;18.20;66.00;;;;;;5413404;26;1864;-72
2024/04/22 09:08:20;;;;;;;;;;;18.20;66.00;;;;;;5376040;26;1176;-72
2024/04/22 09:10:53;;;;;;;;;;;18.20;66.00;;;;;;5439439;26;1408;-72
2024/04/22 09:13:18;;;;;;;;;;;18.20;66.00;;;;;;5402022;26;1558;-73
2024/04/22 09:15:44;;;;;;;;;;;18.20;66.00;;;;;;5396800;26;1543;-73
2024/04/22 09:18:12;;;;;;;;;;;18.20;66.00;;;;;;5361729;26;1031;-72
2024/04/22 09:20:38;;;;;;;;;;;18.20;66.00;;;;;;5398250;26;1879;-73
2024/04/22 09:23:03;;;;;;;;;;;18.20;66.00;;;;;;5391144;26;1610;-71
2024/04/22 09:25:29;;;;;;;;;;;18.20;66.00;;;;;;5390616;26;1829;-71
2024/04/22 09:27:54;;;;;;;;;;;18.20;66.00;;;;;;5394409;26;1986;-72
2024/04/22 09:30:21;;;;;;;;;;;18.20;66.00;;;;;;5363197;26;1792;-73
2024/04/22 09:32:46;;;;;;;;;;;18.20;66.00;;;;;;5423171;26;1902;-73
2024/04/22 09:35:16;;;;;;;;;;;18.20;66.00;;;;;;5360287;26;1751;-73
2024/04/22 09:37:44;;;;;;;;;;;18.20;66.10;;;;;;5398018;26;1669;-71
2024/04/22 09:40:10;;;;;;;;;;;18.20;66.10;;;;;;5363481;26;1798;-74
2024/04/22 09:42:35;;;;;;;;;;;18.20;66.10;;;;;;5361197;26;2007;-73
2024/04/22 09:45:00;;;;;;;;;;;18.20;66.10;;;;;;5371456;26;1832;-73
2024/04/22 09:47:26;;;;;;;;;;;18.20;66.20;;;;;;5419126;26;1874;-73
2024/04/22 09:49:51;;;;;;;;;;;18.20;66.20;;;;;;5422850;26;1909;-73
2024/04/22 09:52:17;;;;;;;;;;;18.20;66.20;;;;;;5422899;26;1493;-73
2024/04/22 09:54:42;;;;;;;;;;;18.20;66.20;;;;;;5393709;26;1895;-73
2024/04/22 09:57:08;;;;;;;;;;;18.10;66.20;;;;;;5422763;26;1885;-73
2024/04/22 09:59:33;;;;;;;;;;;18.10;66.20;;;;;;5420061;26;1793;-73
2024/04/22 10:01:59;;;;;;;;;;;18.10;66.20;;;;;;5370434;26;1931;-73
2024/04/22 10:04:24;;;;;;;;;;;18.10;66.20;;;;;;5380928;26;1589;-73
2024/04/22 10:06:50;;;;;;;;;;;18.10;66.20;;;;;;5420129;26;1896;-72
2024/04/22 10:09:16;;;;;;;;;;;18.10;66.30;;;;;;5422810;26;1942;-73
2024/04/22 10:11:42;;;;;;;;;;;18.10;66.30;;;;;;5394700;26;1912;-73
2024/04/22 10:14:08;;;;;;;;;;;18.10;66.30;;;;;;5358816;26;1983;-73
2024/04/22 10:16:34;;;;;;;;;;;18.10;66.30;;;;;;5393703;26;1532;-73
2024/04/22 10:18:59;;;;;;;;;;;18.10;66.40;;;;;;5396434;26;1439;-73
2024/04/22 10:21:26;;;;;;;;;;;18.10;66.40;;;;;;5393397;26;2035;-73
2024/04/22 10:23:53;;;;;;;;;;;18.10;66.40;;;;;;5378222;26;1908;-73
2024/04/22 10:26:18;;;;;;;;;;;18.10;66.40;;;;;;5387936;26;2500;-73
2024/04/22 10:28:45;;;;;;;;;;;18.10;66.40;;;;;;5389983;26;1467;-74
2024/04/22 10:31:20;;;;;;;;;;;18.10;66.40;;;;;;5394026;26;1745;-73
2024/04/22 10:33:46;;;;;;;;;;;18.10;66.50;;;;;;5393395;26;1817;-73
2024/04/22 10:36:12;;;;;;;;;;;18.10;66.50;;;;;;5386820;26;1887;-73
2024/04/22 10:38:38;;;;;;;;;;;18.10;66.50;;;;;;5359519;26;1934;-70
2024/04/22 10:41:03;;;;;;;;;;;18.10;66.50;;;;;;5399087;26;1282;-72
2024/04/22 10:43:29;;;;;;;;;;;18.10;66.60;;;;;;5422207;26;2094;-72
2024/04/22 10:45:54;;;;;;;;;;;18.10;66.60;;;;;;5355042;26;1833;-72
2024/04/22 10:48:20;;;;;;;;;;;18.10;66.60;;;;;;5358485;26;1885;-72
2024/04/22 10:50:46;;;;;;;;;;;18.10;66.70;;;;;;5361405;26;1403;-73
2024/04/22 10:53:11;;;;;;;;;;;18.10;66.60;;;;;;5361591;26;1761;-73
2024/04/22 10:55:37;;;;;;;;;;;18.10;66.70;;;;;;5394430;26;1868;-72
2024/04/22 10:58:02;;;;;;;;;;;18.10;66.70;;;;;;5393266;26;1803;-72
2024/04/22 11:00:28;;;;;;;;;;;18.00;66.60;;;;;;5361361;26;1865;-72
2024/04/22 11:02:53;;;;;;;;;;;18.00;66.60;;;;;;5395360;26;1897;-73
2024/04/22 11:05:19;;;;;;;;;;;18.10;66.70;;;;;;5356072;26;1915;-72
2024/04/22 11:07:44;;;;;;;;;;;18.10;66.70;;;;;;5393705;26;2104;-72
2024/04/22 11:10:09;;;;;;;;;;;18.00;66.70;;;;;;5389278;26;1762;-72
2024/04/22 11:12:35;;;;;;;;;;;18.00;66.70;;;;;;5427868;26;1683;-72
2024/04/22 11:15:00;;;;;;;;;;;18.10;66.80;;;;;;5365370;26;1825;-72
2024/04/22 11:17:26;;;;;;;;;;;18.00;66.70;;;;;;5393988;26;1509;-72
2024/04/22 11:19:52;;;;;;;;;;;18.00;66.70;;;;;;5392379;26;2014;-72
2024/04/22 11:22:20;;;;;;;;;;;18.00;66.70;;;;;;5369464;26;1791;-73
2024/04/22 11:24:46;;;;;;;;;;;18.00;66.70;;;;;;5398498;26;1742;-72
2024/04/22 11:27:12;;;;;;;;;;;18.00;66.70;;;;;;5365648;26;2033;-72
2024/04/22 11:29:38;;;;;;;;;;;18.00;66.70;;;;;;5367410;26;1718;-72
2024/04/22 11:32:03;;;;;;;;;;;18.00;66.70;;;;;;5367204;26;2073;-72
2024/04/22 11:34:29;;;;;;;;;;;18.00;66.70;;;;;;5362071;26;1762;-72
2024/04/22 11:36:57;;;;;;;;;;;18.00;66.80;;;;;;5430307;26;1887;-72
2024/04/22 11:39:26;;;;;;;;;;;18.00;66.70;;;;;;5426424;26;1870;-72
2024/04/22 11:41:51;;;;;;;;;;;18.00;66.80;;;;;;5398437;26;1861;-72
2024/04/22 11:44:17;;;;;;;;;;;18.00;66.80;;;;;;5400147;26;1536;-72
2024/04/22 11:46:43;;;;;;;;;;;18.00;66.80;;;;;;5367441;26;1868;-73
2024/04/22 11:49:08;;;;;;;;;;;18.00;66.80;;;;;;5363996;26;1945;-72
2024/04/22 11:51:34;;;;;;;;;;;18.00;66.80;;;;;;5399440;26;1434;-74
2024/04/22 11:53:59;;;;;;;;;;;18.00;66.80;;;;;;5396305;26;1821;-71
2024/04/22 11:56:30;;;;;;;;;;;18.00;66.80;;;;;;5400275;26;1854;-72
2024/04/22 11:58:58;;;;;;;;;;;18.00;66.90;;;;;;5382526;26;1492;-73
2024/04/22 12:01:24;;;;;;;;;;;18.00;66.90;;;;;;5359601;26;1879;-72
2024/04/22 12:03:49;;;;;;;;;;;18.00;66.90;;;;;;5375652;26;1709;-72
2024/04/22 12:06:14;;;;;;;;;;;18.00;66.90;;;;;;5421192;26;1866;-71
2024/04/22 12:08:40;;;;;;;;;;;18.00;66.90;;;;;;5368138;26;1918;-72
2024/04/22 12:11:05;;;;;;;;;;;18.00;67.60;;;;;;5379351;26;1749;-72
2024/04/22 12:13:31;;;;;;;;;;;18.00;66.90;;;;;;5398118;26;1874;-72
2024/04/22 12:15:56;;;;;;;;;;;17.90;66.90;;;;;;5395343;26;1238;-72
2024/04/22 12:18:22;;;;;;;;;;;18.00;67.00;;;;;;5378462;26;1649;-73
2024/04/22 12:20:47;;;;;;;;;;;18.00;66.90;;;;;;5391236;26;1874;-71
2024/04/22 12:23:13;;;;;;;;;;;18.00;66.90;;;;;;5421415;26;1802;-73
2024/04/22 12:25:38;;;;;;;;;;;18.00;66.90;;;;;;5420714;26;1825;-73
2024/04/22 12:28:04;;;;;;;;;;;18.00;66.90;;;;;;5394656;26;1626;-73
2024/04/22 12:30:29;;;;;;;;;;;18.00;66.80;;;;;;5392179;26;1864;-73
2024/04/22 12:32:55;;;;;;;;;;;18.00;66.70;;;;;;5394778;26;1971;-73
2024/04/22 12:35:20;;;;;;;;;;;18.00;66.60;;;;;;5378733;26;1770;-73
2024/04/22 12:37:46;;;;;;;;;;;18.10;66.60;;;;;;5389926;26;1759;-73
2024/04/22 12:40:11;;;;;;;;;;;18.10;66.50;;;;;;5390937;26;1951;-74
2024/04/22 12:42:36;;;;;;;;;;;18.10;66.40;;;;;;5360918;26;1883;-73
2024/04/22 12:45:03;;;;;;;;;;;18.20;66.40;;;;;;5367903;26;1804;-73
2024/04/22 12:52:57;;;;;;;;;;;18.20;66.10;;;;;;5398790;26;1845;-73
2024/04/22 12:55:22;;;;;;;;;;;18.20;66.00;;;;;;5377498;26;1868;-73
2024/04/22 12:57:48;;;;;;;;;;;18.20;65.90;;;;;;5396228;26;1684;-73
2024/04/22 13:00:14;;;;;;;;;;;18.30;65.90;;;;;;5394354;26;1832;-72
2024/04/22 13:02:39;;;;;;;;;;;18.30;66.60;;;;;;5391917;26;1942;-73
2024/04/22 13:05:05;;;;;;;;;;;18.30;65.80;;;;;;5362101;26;1452;-73
2024/04/22 13:07:31;;;;;;;;;;;18.30;65.70;;;;;;5390805;26;1821;-72
2024/04/22 13:09:56;;;;;;;;;;;18.30;65.70;;;;;;5397036;26;1354;-72
2024/04/22 13:12:22;;;;;;;;;;;18.30;65.60;;;;;;5422520;26;1700;-73
2024/04/22 13:14:47;;;;;;;;;;;18.40;65.70;;;;;;5421798;26;1274;-73
2024/04/22 13:17:13;;;;;;;;;;;18.30;65.60;;;;;;5393116;26;1418;-73
2024/04/22 13:19:38;;;;;;;;;;;18.40;65.60;;;;;;5397008;26;1476;-73
2024/04/22 13:22:04;;;;;;;;;;;18.30;65.50;;;;;;5404769;26;1330;-73
2024/04/22 13:24:29;;;;;;;;;;;18.40;65.50;;;;;;5400480;26;1629;-73
2024/04/22 13:26:55;;;;;;;;;;;18.40;65.50;;;;;;5395994;26;1832;-73
2024/04/22 13:29:22;;;;;;;;;;;18.40;65.50;;;;;;5401703;26;1462;-73
2024/04/22 13:31:48;;;;;;;;;;;18.40;65.40;;;;;;5400794;26;1520;-72
2024/04/22 13:34:13;;;;;;;;;;;18.40;65.40;;;;;;5363310;26;1005;-73
2024/04/22 13:36:39;;;;;;;;;;;18.40;65.40;;;;;;5399841;26;1468;-73
2024/04/22 13:39:04;;;;;;;;;;;18.40;65.40;;;;;;5361681;26;1034;-73
2024/04/22 13:41:30;;;;;;;;;;;18.40;65.30;;;;;;5418717;26;1062;-72
2024/04/22 13:43:55;;;;;;;;;;;18.40;65.30;;;;;;5392728;26;1562;-73
2024/04/22 13:46:24;;;;;;;;;;;18.40;65.30;;;;;;5424973;26;1841;-74
2024/04/22 13:48:50;;;;;;;;;;;18.40;65.30;;;;;;5423899;26;1319;-73
2024/04/22 13:51:16;;;;;;;;;;;18.40;65.30;;;;;;5360653;26;1332;-74
2024/04/22 13:53:41;;;;;;;;;;;18.40;65.30;;;;;;5364919;26;1392;-74
2024/04/22 13:56:07;;;;;;;;;;;18.40;65.30;;;;;;5402102;26;1160;-74
2024/04/22 13:58:32;;;;;;;;;;;18.40;65.30;;;;;;5397792;26;1325;-74
2024/04/22 14:00:58;;;;;;;;;;;18.40;65.30;;;;;;5398188;26;1631;-74
2024/04/22 14:03:23;;;;;;;;;;;18.40;65.30;;;;;;5342170;26;1519;-74
2024/04/22 14:05:49;;;;;;;;;;;18.40;65.30;;;;;;5367581;26;1841;-74
2024/04/22 14:08:15;;;;;;;;;;;18.40;65.40;;;;;;5395579;26;1880;-73
2024/04/22 14:10:40;;;;;;;;;;;18.40;65.40;;;;;;5395455;26;1628;-73
2024/04/22 14:13:06;;;;;;;;;;;18.40;65.40;;;;;;5391831;26;1486;-73
2024/04/22 14:15:31;;;;;;;;;;;18.40;65.40;;;;;;5358390;26;1296;-74
2024/04/22 14:17:56;;;;;;;;;;;18.40;65.40;;;;;;5360794;26;1873;-74
2024/04/22 14:20:22;;;;;;;;;;;18.40;65.50;;;;;;5396069;26;1442;-73
2024/04/22 14:22:47;;;;;;;;;;;18.40;65.50;;;;;;5389751;26;1009;-74
2024/04/22 14:25:13;;;;;;;;;;;18.40;65.50;;;;;;5390773;26;1428;-74
2024/04/22 14:27:38;;;;;;;;;;;18.40;65.50;;;;;;5394932;26;1821;-74
2024/04/22 14:30:04;;;;;;;;;;;18.40;65.60;;;;;;5365787;26;1912;-74
2024/04/22 14:32:30;;;;;;;;;;;18.40;65.60;;;;;;5356310;26;1763;-75